Flight Track Log - Related Links

Times and Time Zones

All times are in EST time to prevent confusion due to time zone crossing. See the TAM3920 flight status page for this flight to view local times or setup timezone preferences in your user account.

Time Position Orientation Groundspeed Altitude Reporting Facility
EST Latitude Longitude Course Direction KTS MPH feet Rate Location/Type
Wed 08:30:00 AM -23.4460 -45.7342 78° East  Level Estimated
Wed 08:31:00 AM -23.4277 -45.6422 78° East  Level Estimated
Wed 08:32:00 AM -23.4092 -45.5503 78° East  Level Estimated
Wed 08:33:00 AM -23.3908 -45.4583 78° East  Level Estimated
Wed 08:34:00 AM -23.3722 -45.3664 78° East  Level Estimated
Wed 08:35:00 AM -23.3536 -45.2746 78° East  Level Estimated
Wed 08:36:00 AM -23.3350 -45.1827 78° East  Level Estimated
Wed 08:37:00 AM -23.3163 -45.0909 78° East  Level Estimated
Wed 08:38:00 AM -23.2976 -44.9991 77° East  Level Estimated
Wed 08:39:00 AM -23.2788 -44.9073 77° East  Level Estimated
Wed 08:40:00 AM -23.2600 -44.8156 77° East  Level Estimated
Wed 08:41:00 AM -23.2411 -44.7238 77° East  Level Estimated
Wed 08:42:00 AM -23.2221 -44.6321 77° East  Level Estimated
Wed 08:43:00 AM -23.2031 -44.5405 77° East  Level Estimated
Wed 08:44:00 AM -23.1840 -44.4488 77° East  Level Estimated
Wed 08:45:00 AM -23.1649 -44.3572 77° East  Level Estimated
Wed 08:46:00 AM -23.1458 -44.2656 77° East  Level Estimated
Wed 08:47:00 AM -23.1265 -44.1741 77° East  Level Estimated
Wed 08:48:00 AM -23.1073 -44.0825 77° East  Level Estimated
Wed 08:49:00 AM -23.0879 -43.9910 77° East  Level Estimated
Wed 08:50:00 AM -23.0686 -43.8995 77° East  Level Estimated
Wed 08:51:00 AM -23.0491 -43.8081 77° East  Level Estimated
Wed 08:52:00 AM -23.0296 -43.7166 77° East  Level Estimated
Wed 08:53:00 AM -23.0101 -43.6252 77° East  Level Estimated
Wed 08:54:00 AM -22.9905 -43.5339 77° East  Level Estimated
Wed 08:55:00 AM -22.9709 -43.4425 77° East  Level Estimated
Wed 08:56:00 AM -22.9512 -43.3512 77° East  Level Estimated
Wed 08:57:00 AM -22.9314 -43.2599 77° East  Level Estimated
Wed 08:58:00 AM -22.9116 -43.1686 77° East  Level Estimated
Wed 08:59:00 AM -22.9105 -43.1631 77° East  Level Estimated
Wed 09:00:00 AM -22.9105 -43.1631 250° West  Level Estimated
Wed 09:01:00 AM -22.9105 -43.1631 250° West  Level Estimated
Wed 09:02:00 AM -22.9105 -43.1631 250° West  Level Estimated
Wed 09:03:00 AM -22.9105 -43.1631 250° West  Level Estimated
Wed 09:04:00 AM -22.9105 -43.1631 250° West  Level Estimated
Wed 09:05:00 AM -22.9105 -43.1631 250° West  Level Estimated
Wed 09:06:00 AM -22.9105 -43.1631 250° West  Level Estimated
Wed 09:07:00 AM -22.9105 -43.1631 250° West  Level Estimated
Wed 09:08:00 AM -22.9105 -43.1631 250° West  Level Estimated
Wed 09:09:00 AM -22.9105 -43.1631 250° West  Level Estimated
Wed 09:10:00 AM -22.9105 -43.1631 250° West  Level Estimated
Wed 09:11:00 AM -22.9105 -43.1631 250° West  Level Estimated
Wed 09:12:00 AM -22.9105 -43.1631 250° West  Level Estimated
Wed 09:13:00 AM -22.9105 -43.1631 250° West  Level Estimated
Wed 09:14:00 AM -22.9105 -43.1631 250° West  Level Estimated

Login

Don't have an account? Register now (free) for customized features, flight alerts, and more!